Accueil
METAR-TAF:

METAR-TAF

Aéroports :

Base aérienne de Schaffen

Diest, Belgique

latitude: 51-00N, longitude: 005-04E, altitude: 30 m

Observation

Le bulletin a été fait il y a 30 minutes, à 04:55 UTC
Vent 5 kt de sud/sud-ouest
Température 12°C
Humidité 88%
Pression 1015 hPa
Visibilité 10 km ou plus

METAR: EBDT 190455Z AUTO 20005KT 9999 BKN210/// 12/10 Q1015 BLU

Heure: 07:25 (05:25 UTC)


TAF: absent

Observations et prévisions météorologiques de plus de 4000 aéroports (messages METAR et TAF).

Les stations disponibles sont représentées par des disques jaunes et rouges sur la carte.

Passer la souris dessus pour voir le nom de la station.

Cliquer dessus pour voir les observations et prévisions météorologiques.

Pour changer de carte: cliquez sur les boutons verts avec une croix noire pour zoomer, sur le bouton vert avec un tiret pour effectuer un zoom arrière, ou sur les flèches vertes pour les cartes adjacentes.


METAR-TAF: